Terminal Aerodrome Forecast
Issued by NWS Duluth, MN

Home | Current Version | Previous Version | Text Only | Print | Product List | Glossary On
Versions: 1 2 3 4 5 6 7 8 9 10 11 12 13 14 15 16 17 18
232
FTUS43 KDLH 251729
TAFINL
TAF
KINL 251729Z 2518/2618 10010G18KT P6SM BKN120
     FM252300 12011KT 5SM -RA OVC040
     FM260200 12012KT 4SM -SHRA BR OVC025
      TEMPO 2602/2606 3SM -TSRA OVC015CB
     FM261200 16012KT 5SM -SHRA OVC020=

USA.gov is the U.S. government's official web portal to all federal, state and local government web resources and services.